首页
METAR-TAF:

METAR-TAF

机场 :

敖德薩國際機場

敖德薩, 乌克兰

纬度: 46-26N, 经度: 030-46E, 海拔: 42米

当前天气观测

该预报发布于43分钟前的20:00 UTC
风速6节,风向西转西南
温度 13°C
湿度 88%
气压 1000 hPa
能见度10公里或以上
1500米以下无云,无积雨云

METAR: UKOO 182000Z 24003MPS CAVOK 13/11 Q1000 R16/090060 NOSIG

时间: 23:43 (20:43 UTC)

预报

该预报发布于3小时和34分钟前的17:09 UTC
预报有效从18日的 18点(UTC)到 19日的 18点(UTC)
风速14节,风向西转西南,有时为27节阵风
能見度: 2100
散云层高于300英尺
多云层高于700英尺
散云层高于2000英尺, 积雨云.
小阵雨, 轻雾
短暂存在
从 18日的 18点(UTC)到 18日的 24点(UTC)
风速17节,风向多变,有时为31节阵风
雷暴, 小雨
几率 40% :
短暂存在
从 18日的 18点(UTC)到 18日的 24点(UTC)
能見度: 0400
层高于200英尺
成为
从 19日的 05点(UTC)到 19日的 06点(UTC)
风速16节,风向西,有时为31节阵风
能見度: 6000

TAF: UKOO 181709Z 1818/1918 25007G14MPS 2100 -SHRA BR SCT003 BKN007 SCT020CB TEMPO 1818/1824 VRB09G16MPS -TSRA PROB40 TEMPO 1818/1824 0400 FG VV002 BECMG 1905/1906 28008G16MPS 6000 NSW

超过4000个机场的气象观测和天气预报(METAR&TAF报告)。

可查询的气象台以黄色和红色小点在地图上表示。

将鼠标移到小点上方,可查看气象台名称。

然后点击查看天气观测和预报。

如需切换地图:点击带黑十字的绿色按钮放大地图;点击带横线的绿色按钮缩小地图;或者点击绿色箭头查看邻近地区的地图。


METAR-TAF: